createdAt,value
2023-12-14T00:00:30.597Z,11.55
2023-12-14T00:01:32.135Z,13.77
2023-12-14T00:02:34.185Z,12.80
2023-12-14T00:03:35.758Z,13.02
2023-12-14T00:04:37.362Z,13.20
2023-12-14T00:05:38.811Z,13.05
2023-12-14T00:06:40.260Z,12.82
2023-12-14T00:07:41.754Z,12.88
2023-12-14T00:08:43.294Z,11.10
2023-12-14T00:09:44.749Z,13.10
2023-12-14T00:10:46.182Z,13.13
2023-12-14T00:11:47.798Z,12.05
2023-12-14T00:12:51.975Z,13.25
2023-12-14T00:13:53.509Z,13.00
2023-12-14T00:14:55.022Z,12.82
2023-12-14T00:15:56.446Z,12.40
2023-12-14T00:17:00.211Z,13.63
2023-12-14T00:18:01.750Z,13.52
2023-12-14T00:19:03.919Z,13.68
2023-12-14T00:20:06.688Z,12.48
2023-12-14T00:21:08.320Z,13.65
2023-12-14T00:22:09.818Z,12.48
2023-12-14T00:23:11.443Z,14.10
2023-12-14T00:24:12.926Z,13.45
2023-12-14T00:25:17.371Z,13.77
2023-12-14T00:26:18.918Z,14.02
2023-12-14T00:27:20.447Z,13.70
2023-12-14T00:28:21.931Z,14.13
2023-12-14T00:29:23.498Z,13.77
2023-12-14T00:30:24.999Z,14.35
2023-12-14T00:31:26.882Z,14.32
2023-12-14T00:32:28.391Z,14.25
2023-12-14T00:33:30.036Z,14.40
2023-12-14T00:34:31.637Z,14.13
2023-12-14T00:35:33.311Z,14.00
2023-12-14T00:36:34.797Z,14.75
2023-12-14T00:37:36.276Z,14.68
2023-12-14T00:38:37.742Z,14.95
2023-12-14T00:39:39.323Z,14.57
2023-12-14T00:40:40.793Z,15.00
2023-12-14T00:41:42.334Z,15.25
2023-12-14T00:42:47.247Z,14.60
2023-12-14T00:43:48.744Z,13.73
2023-12-14T00:44:50.333Z,13.48
2023-12-14T00:45:53.622Z,15.10
2023-12-14T00:46:55.158Z,13.70
2023-12-14T00:47:56.835Z,15.18
2023-12-14T00:48:58.341Z,15.32
2023-12-14T00:49:59.908Z,14.88
2023-12-14T00:51:01.435Z,15.52
2023-12-14T00:52:03.395Z,16.45
2023-12-14T00:53:04.892Z,16.27
2023-12-14T00:54:06.438Z,14.15
2023-12-14T00:55:08.008Z,16.25
2023-12-14T00:56:10.043Z,14.45
2023-12-14T00:57:11.615Z,15.77
2023-12-14T00:58:16.245Z,15.95
2023-12-14T00:59:17.775Z,15.85
2023-12-14T01:00:19.727Z,16.98
2023-12-14T01:01:21.288Z,16.55
2023-12-14T01:02:22.923Z,16.05
2023-12-14T01:03:24.458Z,17.20
2023-12-14T01:04:25.957Z,17.45
2023-12-14T01:05:27.524Z,16.77
2023-12-14T01:06:29.025Z,16.80
2023-12-14T01:07:30.529Z,15.55
2023-12-14T01:08:32.017Z,16.65
2023-12-14T01:09:33.485Z,16.10
2023-12-14T01:10:36.730Z,16.42
2023-12-14T01:11:38.337Z,16.92
2023-12-14T01:12:39.893Z,17.23
2023-12-14T01:13:41.437Z,17.40
2023-12-14T01:14:42.867Z,17.15
2023-12-14T01:15:44.392Z,17.25
2023-12-14T01:16:45.848Z,16.75
2023-12-14T01:17:47.403Z,16.67
2023-12-14T01:18:48.985Z,17.20
2023-12-14T01:19:50.545Z,15.45
2023-12-14T01:20:52.063Z,16.98
2023-12-14T01:21:53.644Z,17.20
2023-12-14T01:22:55.110Z,17.13
2023-12-14T01:23:56.572Z,15.93
2023-12-14T01:24:58.035Z,17.58
2023-12-14T01:25:59.582Z,17.17
2023-12-14T01:27:01.376Z,16.75
2023-12-14T01:28:03.212Z,16.83
2023-12-14T01:29:04.782Z,17.08
2023-12-14T01:30:07.122Z,16.40
2023-12-14T01:31:08.631Z,16.50
2023-12-14T01:32:10.168Z,16.02
2023-12-14T01:33:12.001Z,15.20
2023-12-14T01:34:13.673Z,16.38
2023-12-14T01:35:15.240Z,14.35
2023-12-14T01:36:23.718Z,16.05
2023-12-14T01:37:25.254Z,16.33
2023-12-14T01:38:26.738Z,16.55
2023-12-14T01:39:28.178Z,17.10
2023-12-14T01:40:29.719Z,15.85
2023-12-14T01:41:31.156Z,16.60
2023-12-14T01:42:32.802Z,15.65
2023-12-14T01:43:34.414Z,16.15
2023-12-14T01:44:35.910Z,16.00
2023-12-14T01:45:38.542Z,16.50
2023-12-14T01:46:39.986Z,15.70
2023-12-14T01:47:41.560Z,15.15
2023-12-14T01:48:43.469Z,15.77
2023-12-14T01:49:44.965Z,16.10
2023-12-14T01:50:46.443Z,16.42
2023-12-14T01:51:48.113Z,15.02
2023-12-14T01:52:49.635Z,15.13
2023-12-14T01:53:51.078Z,15.18
2023-12-14T01:54:52.584Z,14.88
2023-12-14T01:55:54.098Z,14.63
2023-12-14T01:56:56.025Z,15.45
2023-12-14T01:57:57.511Z,14.18
2023-12-14T01:58:58.997Z,14.32
2023-12-14T02:00:00.549Z,14.00
2023-12-14T02:01:14.770Z,13.73
2023-12-14T02:02:16.383Z,14.65
2023-12-14T02:03:18.006Z,13.70
2023-12-14T02:04:19.629Z,13.77
2023-12-14T02:05:21.573Z,14.55
2023-12-14T02:06:23.152Z,13.85
2023-12-14T02:07:24.634Z,13.55
2023-12-14T02:08:26.329Z,13.07
2023-12-14T02:09:27.836Z,14.93
2023-12-14T02:10:29.419Z,13.55
2023-12-14T02:11:31.127Z,13.88
2023-12-14T02:12:34.849Z,13.48
2023-12-14T02:13:36.776Z,13.02
2023-12-14T02:14:38.305Z,12.85
2023-12-14T02:15:39.978Z,13.25
2023-12-14T02:16:41.513Z,14.05
2023-12-14T02:17:43.010Z,13.75
2023-12-14T02:18:45.551Z,13.25
2023-12-14T02:19:47.133Z,13.40
2023-12-14T02:20:48.605Z,11.85
2023-12-14T02:21:50.102Z,13.13
2023-12-14T02:22:58.156Z,13.38
2023-12-14T02:25:01.036Z,12.43
2023-12-14T02:26:02.583Z,13.05
2023-12-14T02:27:04.631Z,12.38
2023-12-14T02:29:07.743Z,11.48
2023-12-14T02:30:10.224Z,12.32
2023-12-14T02:31:12.024Z,12.90
2023-12-14T02:32:13.481Z,13.88
2023-12-14T02:33:15.041Z,14.25
2023-12-14T02:34:16.659Z,13.82
2023-12-14T02:35:19.534Z,13.23
2023-12-14T02:36:21.168Z,13.98
2023-12-14T02:37:22.688Z,13.80
2023-12-14T02:38:24.330Z,14.02
2023-12-14T02:39:25.808Z,13.20
2023-12-14T02:40:27.284Z,13.07
2023-12-14T02:41:28.737Z,13.25
2023-12-14T02:42:30.539Z,13.40
2023-12-14T02:43:32.095Z,12.15
2023-12-14T02:44:33.553Z,12.45
2023-12-14T02:45:35.034Z,14.35
2023-12-14T02:46:36.576Z,12.98
2023-12-14T02:47:38.273Z,13.95
2023-12-14T02:48:43.510Z,12.00
2023-12-14T02:49:45.350Z,12.88
2023-12-14T02:50:46.821Z,11.90
2023-12-14T02:51:48.259Z,11.98
2023-12-14T02:52:49.715Z,11.13
2023-12-14T02:53:51.264Z,12.05
2023-12-14T02:54:52.935Z,12.60
2023-12-14T02:55:54.473Z,11.88
2023-12-14T02:56:56.588Z,11.48
2023-12-14T02:58:59.509Z,10.88
2023-12-14T03:00:01.036Z,11.68
2023-12-14T03:01:02.534Z,12.35
2023-12-14T03:02:04.488Z,10.93
2023-12-14T03:03:06.076Z,12.32
2023-12-14T03:04:08.043Z,11.85
2023-12-14T03:05:10.927Z,11.73
2023-12-14T03:06:12.726Z,11.48
2023-12-14T03:07:14.319Z,11.25
2023-12-14T03:08:15.773Z,11.40
2023-12-14T03:09:17.372Z,10.52
2023-12-14T03:10:18.985Z,10.85
2023-12-14T03:11:26.840Z,10.23
2023-12-14T03:12:28.284Z,10.85
2023-12-14T03:13:29.848Z,11.05
2023-12-14T03:14:33.890Z,11.18
2023-12-14T03:15:35.338Z,10.95
2023-12-14T03:16:36.960Z,10.73
2023-12-14T03:17:38.518Z,10.35
2023-12-14T03:18:40.119Z,10.18
2023-12-14T03:19:42.173Z,10.43
2023-12-14T03:20:43.883Z,9.65
2023-12-14T03:21:45.361Z,9.60
2023-12-14T03:22:46.890Z,9.40
2023-12-14T03:23:48.492Z,10.45
2023-12-14T03:24:49.953Z,10.90
2023-12-14T03:25:51.448Z,10.77
2023-12-14T03:26:52.961Z,10.60
2023-12-14T03:27:54.412Z,10.82
2023-12-14T03:28:55.940Z,10.55
2023-12-14T03:29:57.421Z,10.52
2023-12-14T03:30:58.968Z,10.82
2023-12-14T03:32:01.389Z,11.88
2023-12-14T03:33:02.951Z,11.50
2023-12-14T03:34:04.578Z,11.93
2023-12-14T03:35:06.642Z,11.80
2023-12-14T03:36:08.310Z,11.02
2023-12-14T03:37:09.798Z,12.18
2023-12-14T03:38:11.376Z,11.50
2023-12-14T03:39:12.918Z,11.65
2023-12-14T03:40:14.451Z,12.35
2023-12-14T03:41:15.940Z,12.77
2023-12-14T03:42:17.408Z,11.90
2023-12-14T03:43:18.927Z,12.38
2023-12-14T03:44:20.466Z,11.80
2023-12-14T03:45:21.885Z,11.48
2023-12-14T03:46:23.392Z,11.88
2023-12-14T03:47:24.904Z,12.43
2023-12-14T03:48:26.606Z,12.98
2023-12-14T03:49:28.196Z,12.65
2023-12-14T03:50:30.231Z,13.55
2023-12-14T03:51:31.725Z,13.40
2023-12-14T03:52:33.568Z,13.55
2023-12-14T03:54:36.870Z,11.60
2023-12-14T03:55:38.363Z,12.68
2023-12-14T03:56:39.827Z,13.32
2023-12-14T03:57:41.888Z,12.07
2023-12-14T03:59:44.875Z,11.20
2023-12-14T04:00:46.489Z,13.27
2023-12-14T04:01:48.120Z,13.07
2023-12-14T04:02:49.873Z,13.52
2023-12-14T04:03:51.396Z,12.13
2023-12-14T04:04:52.899Z,11.85
2023-12-14T04:05:54.488Z,12.70
2023-12-14T04:06:56.044Z,13.48
2023-12-14T04:07:57.525Z,12.45
2023-12-14T04:08:58.950Z,13.73
2023-12-14T04:10:00.421Z,13.75
2023-12-14T04:11:02.149Z,13.18
2023-12-14T04:12:04.110Z,11.95
2023-12-14T04:13:05.598Z,12.95
2023-12-14T04:14:07.319Z,13.00
2023-12-14T04:15:10.750Z,13.63
2023-12-14T04:16:12.243Z,13.05
2023-12-14T04:17:13.962Z,12.93
2023-12-14T04:18:15.664Z,12.77
2023-12-14T04:19:17.198Z,13.13
2023-12-14T04:20:18.650Z,11.38
2023-12-14T04:21:20.169Z,11.98
2023-12-14T04:22:21.691Z,13.32
2023-12-14T04:23:23.355Z,13.05
2023-12-14T04:24:24.828Z,13.55
2023-12-14T04:25:26.389Z,13.30
2023-12-14T04:26:29.071Z,13.48
2023-12-14T04:27:31.225Z,13.25
2023-12-14T04:28:32.755Z,12.13
2023-12-14T04:29:34.223Z,13.13
2023-12-14T04:30:35.698Z,12.80
2023-12-14T04:31:37.273Z,13.27
2023-12-14T04:32:39.598Z,12.98
2023-12-14T04:33:41.323Z,12.50
2023-12-14T04:34:42.900Z,13.63
2023-12-14T04:35:44.449Z,13.20
2023-12-14T04:36:46.812Z,14.35
2023-12-14T04:37:48.345Z,12.02
2023-12-14T04:38:49.916Z,13.25
2023-12-14T04:39:52.248Z,13.30
2023-12-14T04:40:53.725Z,12.02
2023-12-14T04:41:55.536Z,13.57
2023-12-14T04:42:56.974Z,11.88
2023-12-14T04:43:58.598Z,11.65
2023-12-14T04:45:00.183Z,12.95
2023-12-14T04:46:01.707Z,12.38
2023-12-14T04:47:03.230Z,12.98
2023-12-14T04:48:05.009Z,12.40
2023-12-14T04:49:06.634Z,13.25
2023-12-14T04:50:09.128Z,13.30
2023-12-14T04:51:13.480Z,11.98
2023-12-14T04:52:14.960Z,13.15
2023-12-14T04:53:16.730Z,12.35
2023-12-14T04:54:18.294Z,11.80
2023-12-14T04:55:19.788Z,12.38
2023-12-14T04:56:21.297Z,12.32
2023-12-14T04:57:22.810Z,12.20
2023-12-14T04:58:24.264Z,11.25
2023-12-14T04:59:25.714Z,11.40
2023-12-14T05:00:27.238Z,11.38
2023-12-14T05:01:30.493Z,12.43
2023-12-14T05:02:33.412Z,11.98
2023-12-14T05:03:36.238Z,12.05
2023-12-14T05:04:37.740Z,11.25
2023-12-14T05:05:39.236Z,12.40
2023-12-14T05:06:41.010Z,11.70
2023-12-14T05:07:42.487Z,11.38
2023-12-14T05:08:44.001Z,10.95
2023-12-14T05:09:45.464Z,11.73
2023-12-14T05:10:46.953Z,10.50
2023-12-14T05:11:48.392Z,11.38
2023-12-14T05:12:49.905Z,10.80
2023-12-14T05:13:51.412Z,10.07
2023-12-14T05:14:53.606Z,10.15
2023-12-14T05:15:55.101Z,9.85
2023-12-14T05:16:56.683Z,11.02
2023-12-14T05:17:58.255Z,11.10
2023-12-14T05:19:00.349Z,10.55
2023-12-14T05:20:02.180Z,10.30
2023-12-14T05:21:03.928Z,10.07
2023-12-14T05:22:05.468Z,10.80
2023-12-14T05:23:06.976Z,11.00
2023-12-14T05:24:08.503Z,10.55
2023-12-14T05:25:10.538Z,9.30
2023-12-14T05:26:12.152Z,10.30
2023-12-14T05:27:13.681Z,10.60
2023-12-14T05:28:15.140Z,10.63
2023-12-14T05:29:18.210Z,10.95
2023-12-14T05:30:20.095Z,10.88
2023-12-14T05:31:21.535Z,10.63
2023-12-14T05:32:23.055Z,10.82
2023-12-14T05:33:24.802Z,10.55
2023-12-14T05:34:26.315Z,9.85
2023-12-14T05:35:27.761Z,11.15
2023-12-14T05:36:29.202Z,10.80
2023-12-14T05:37:30.673Z,10.63
2023-12-14T05:38:33.012Z,11.27
2023-12-14T05:39:34.487Z,11.27
2023-12-14T05:40:36.043Z,10.85
2023-12-14T05:41:43.928Z,10.93
2023-12-14T05:42:45.825Z,10.65
2023-12-14T05:43:48.501Z,10.57
2023-12-14T05:44:49.988Z,10.82
2023-12-14T05:45:51.436Z,11.45
2023-12-14T05:46:52.949Z,11.30
2023-12-14T05:47:54.638Z,11.10
2023-12-14T05:48:56.306Z,9.60
2023-12-14T05:49:57.866Z,10.95
2023-12-14T05:51:01.320Z,11.30
2023-12-14T05:52:02.804Z,12.00
2023-12-14T05:53:04.360Z,11.15
2023-12-14T05:54:05.973Z,10.73
2023-12-14T05:55:11.710Z,11.30
2023-12-14T05:56:13.225Z,10.55
2023-12-14T05:57:14.871Z,10.93
2023-12-14T05:58:16.376Z,10.38
2023-12-14T05:59:18.619Z,10.13
2023-12-14T06:00:20.299Z,10.52
2023-12-14T06:01:21.892Z,10.65
2023-12-14T06:02:23.572Z,11.00
2023-12-14T06:03:25.110Z,10.85
2023-12-14T06:04:27.597Z,10.30
2023-12-14T06:05:29.215Z,10.10
2023-12-14T06:06:30.792Z,11.18
2023-12-14T06:07:32.291Z,10.13
2023-12-14T06:08:33.828Z,10.23
2023-12-14T06:09:36.157Z,9.95
2023-12-14T06:10:38.102Z,10.55
2023-12-14T06:11:39.608Z,11.00
2023-12-14T06:12:41.097Z,10.32
2023-12-14T06:13:42.611Z,10.95
2023-12-14T06:14:45.976Z,10.52
2023-12-14T06:15:47.461Z,10.15
2023-12-14T06:16:49.006Z,10.70
2023-12-14T06:17:51.140Z,10.85
2023-12-14T06:18:52.804Z,10.55
2023-12-14T06:19:54.461Z,10.90
2023-12-14T06:20:56.007Z,10.77
2023-12-14T06:21:57.487Z,11.02
2023-12-14T06:22:58.965Z,10.32
2023-12-14T06:24:00.829Z,10.27
2023-12-14T06:25:02.412Z,11.52
2023-12-14T06:26:05.141Z,10.88
2023-12-14T06:27:06.628Z,10.63
2023-12-14T06:28:08.076Z,10.43
2023-12-14T06:29:10.656Z,10.68
2023-12-14T06:30:13.021Z,10.57
2023-12-14T06:31:15.599Z,9.75
2023-12-14T06:32:17.160Z,11.23
2023-12-14T06:33:18.768Z,11.95
2023-12-14T06:34:20.344Z,10.63
2023-12-14T06:35:22.737Z,10.57
2023-12-14T06:36:27.971Z,11.02
2023-12-14T06:37:30.081Z,10.73
2023-12-14T06:39:34.286Z,10.13
2023-12-14T06:40:36.324Z,10.70
2023-12-14T06:42:39.562Z,9.93
2023-12-14T06:43:42.061Z,10.07
2023-12-14T06:44:43.572Z,10.25
2023-12-14T06:45:45.032Z,9.77
2023-12-14T06:46:46.532Z,9.43
2023-12-14T06:47:48.485Z,9.93
2023-12-14T06:48:50.838Z,9.65
2023-12-14T06:49:52.448Z,10.27
2023-12-14T06:50:55.969Z,10.95
2023-12-14T06:51:57.523Z,10.00
2023-12-14T06:52:59.436Z,9.70
2023-12-14T06:54:00.906Z,10.13
2023-12-14T06:55:02.362Z,10.52
2023-12-14T06:56:04.765Z,10.43
2023-12-14T06:57:06.272Z,9.30
2023-12-14T06:58:12.254Z,9.70
2023-12-14T06:59:13.768Z,10.40
2023-12-14T07:00:15.799Z,9.57
2023-12-14T07:01:19.080Z,9.52
2023-12-14T07:02:21.733Z,9.02
2023-12-14T07:03:23.227Z,9.57
2023-12-14T07:04:24.677Z,9.80
2023-12-14T07:05:26.175Z,8.82
2023-12-14T07:06:27.693Z,9.32
2023-12-14T07:07:29.142Z,9.38
2023-12-14T07:08:30.583Z,9.05
2023-12-14T07:09:32.022Z,10.07
2023-12-14T07:10:33.575Z,9.38
2023-12-14T07:11:35.068Z,9.85
2023-12-14T07:12:39.723Z,9.60
2023-12-14T07:13:41.310Z,10.80
2023-12-14T07:14:42.850Z,9.00
2023-12-14T07:15:44.785Z,9.55
2023-12-14T07:16:46.284Z,9.38
2023-12-14T07:17:47.847Z,9.82
2023-12-14T07:18:49.532Z,9.77
2023-12-14T07:19:52.393Z,9.02
2023-12-14T07:20:53.883Z,9.30
2023-12-14T07:21:55.431Z,9.07
2023-12-14T07:22:57.029Z,8.82
2023-12-14T07:23:58.792Z,8.85
2023-12-14T07:25:00.701Z,9.18
2023-12-14T07:26:04.517Z,8.57
2023-12-14T07:27:07.572Z,9.70
2023-12-14T07:28:10.325Z,9.07
2023-12-14T07:29:11.833Z,10.13
2023-12-14T07:30:14.128Z,9.85
2023-12-14T07:31:15.666Z,9.63
2023-12-14T07:32:18.218Z,9.45
2023-12-14T07:33:19.939Z,9.30
2023-12-14T07:34:21.806Z,8.43
2023-12-14T07:35:24.418Z,9.80
2023-12-14T07:36:25.925Z,9.55
2023-12-14T07:37:27.397Z,8.55
2023-12-14T07:38:28.853Z,9.68
2023-12-14T07:39:30.436Z,9.80
2023-12-14T07:40:31.871Z,9.68
2023-12-14T07:41:33.352Z,9.07
2023-12-14T07:42:35.885Z,9.40
2023-12-14T07:43:37.552Z,8.70
2023-12-14T07:44:41.473Z,9.52
2023-12-14T07:45:42.947Z,10.48
2023-12-14T07:46:44.487Z,10.13
2023-12-14T07:47:47.633Z,10.38
2023-12-14T07:48:49.238Z,10.38
2023-12-14T07:49:50.727Z,9.68
2023-12-14T07:50:52.932Z,11.30
2023-12-14T07:51:54.593Z,10.60
2023-12-14T07:52:56.241Z,10.38
2023-12-14T07:53:57.712Z,10.57
2023-12-14T07:54:59.158Z,11.18
2023-12-14T07:56:03.299Z,11.70
2023-12-14T07:57:04.857Z,12.05
2023-12-14T07:58:06.782Z,11.15
2023-12-14T07:59:10.332Z,11.25
2023-12-14T08:00:12.676Z,12.25
2023-12-14T08:01:14.172Z,12.10
2023-12-14T08:02:15.659Z,12.65
2023-12-14T08:03:17.123Z,12.88
2023-12-14T08:04:18.647Z,13.18
2023-12-14T08:05:20.386Z,13.38
2023-12-14T08:06:21.976Z,11.70
2023-12-14T08:07:23.506Z,12.10
2023-12-14T08:08:25.315Z,13.10
2023-12-14T08:09:26.789Z,11.98
2023-12-14T08:10:28.233Z,12.07
2023-12-14T08:11:29.746Z,12.80
2023-12-14T08:12:31.324Z,13.40
2023-12-14T08:13:33.175Z,13.13
2023-12-14T08:14:39.685Z,11.70
2023-12-14T08:15:41.616Z,12.05
2023-12-14T08:16:43.072Z,12.30
2023-12-14T08:17:44.600Z,12.80
2023-12-14T08:18:47.676Z,12.65
2023-12-14T08:19:49.384Z,12.90
2023-12-14T08:20:56.163Z,12.60
2023-12-14T08:21:57.647Z,12.07
2023-12-14T08:22:59.673Z,13.18
2023-12-14T08:25:03.024Z,12.45
2023-12-14T08:26:04.664Z,11.85
2023-12-14T08:27:06.519Z,13.10
2023-12-14T08:28:08.018Z,12.25
2023-12-14T08:29:09.529Z,12.48
2023-12-14T08:30:12.247Z,11.82
2023-12-14T08:31:13.737Z,12.27
2023-12-14T08:32:15.280Z,12.18
2023-12-14T08:33:16.985Z,12.07
2023-12-14T08:34:18.492Z,12.05
2023-12-14T08:35:20.141Z,12.82
2023-12-14T08:36:21.661Z,11.73
2023-12-14T08:37:23.107Z,11.43
2023-12-14T08:38:25.631Z,11.13
2023-12-14T08:39:27.873Z,10.70
2023-12-14T08:40:29.973Z,11.15
2023-12-14T08:42:32.879Z,11.25
2023-12-14T08:43:34.422Z,10.88
2023-12-14T08:44:35.997Z,11.43
2023-12-14T08:45:37.466Z,10.63
2023-12-14T08:46:43.743Z,11.45
2023-12-14T08:47:45.330Z,11.57
2023-12-14T08:48:46.843Z,11.60
2023-12-14T08:49:48.379Z,11.95
2023-12-14T08:50:49.900Z,12.57
2023-12-14T08:51:51.541Z,10.60
2023-12-14T08:52:54.627Z,12.50
2023-12-14T08:53:57.268Z,12.30
2023-12-14T08:54:59.780Z,12.13
2023-12-14T08:56:01.425Z,12.88
2023-12-14T08:57:03.482Z,12.30
2023-12-14T08:59:06.618Z,12.63
2023-12-14T09:00:08.758Z,11.80
2023-12-14T09:02:12.128Z,11.00
2023-12-14T09:03:13.838Z,11.90
2023-12-14T09:04:15.582Z,12.10
2023-12-14T09:05:17.671Z,11.77
2023-12-14T09:07:20.689Z,11.30
2023-12-14T09:08:22.220Z,11.43
2023-12-14T09:09:23.728Z,12.07
2023-12-14T09:10:25.149Z,12.10
2023-12-14T09:11:26.694Z,12.82
2023-12-14T09:12:28.169Z,13.45
2023-12-14T09:13:29.667Z,12.48
2023-12-14T09:14:31.701Z,12.75
2023-12-14T09:16:34.675Z,13.05
2023-12-14T09:17:37.878Z,12.82
2023-12-14T09:18:40.066Z,13.68
2023-12-14T09:19:41.610Z,13.30
2023-12-14T09:20:43.891Z,13.60
2023-12-14T09:21:46.851Z,13.45
2023-12-14T09:22:48.586Z,14.30
2023-12-14T09:23:50.163Z,14.52
2023-12-14T09:24:51.652Z,14.07
2023-12-14T09:25:53.639Z,14.02
2023-12-14T09:26:55.270Z,13.85
2023-12-14T09:27:56.732Z,13.15
2023-12-14T09:28:58.270Z,14.15
2023-12-14T09:29:59.760Z,13.00
2023-12-14T09:31:01.449Z,13.77
2023-12-14T09:32:03.215Z,12.40
2023-12-14T09:33:04.948Z,13.30
2023-12-14T09:34:06.692Z,12.65
2023-12-14T09:35:08.349Z,14.35
2023-12-14T09:36:09.927Z,14.48
2023-12-14T09:37:12.344Z,13.85
2023-12-14T09:38:16.312Z,13.30
2023-12-14T09:39:20.165Z,13.77
2023-12-14T09:40:23.171Z,13.98
2023-12-14T09:41:24.973Z,13.05
2023-12-14T09:42:26.542Z,14.27
2023-12-14T09:43:28.011Z,13.93
2023-12-14T09:44:30.255Z,14.68
2023-12-14T09:45:31.752Z,14.32
2023-12-14T09:46:37.617Z,15.23
2023-12-14T09:47:39.877Z,14.18
2023-12-14T09:48:41.920Z,13.98
2023-12-14T09:49:46.853Z,15.07
2023-12-14T09:50:50.397Z,15.57
2023-12-14T09:51:51.843Z,14.80
2023-12-14T09:52:53.387Z,14.50
2023-12-14T09:53:59.099Z,13.68
2023-12-14T09:55:01.240Z,14.00
2023-12-14T09:57:04.609Z,12.85
2023-12-14T09:58:07.502Z,13.30
2023-12-14T09:59:09.106Z,12.52
2023-12-14T10:00:12.182Z,13.20
2023-12-14T10:01:28.038Z,14.23
2023-12-14T10:02:29.633Z,13.45
2023-12-14T10:03:33.067Z,13.38
2023-12-14T10:04:34.509Z,12.52
2023-12-14T10:05:37.070Z,13.93
2023-12-14T10:06:40.331Z,14.07
2023-12-14T10:07:45.547Z,13.20
2023-12-14T10:08:59.514Z,14.13
2023-12-14T10:10:12.031Z,13.07
2023-12-14T10:11:17.564Z,12.07
2023-12-14T10:12:19.387Z,12.70
2023-12-14T10:13:22.870Z,13.30
2023-12-14T10:14:26.679Z,12.18
2023-12-14T10:15:28.363Z,12.50
2023-12-14T10:16:34.420Z,13.68
2023-12-14T10:17:36.146Z,13.80
2023-12-14T10:18:38.274Z,13.77
2023-12-14T10:19:43.989Z,14.10
2023-12-14T10:20:46.201Z,13.65
2023-12-14T10:21:49.061Z,14.20
2023-12-14T10:22:51.756Z,14.30
2023-12-14T10:23:56.201Z,14.35
2023-12-14T10:24:58.116Z,13.77
2023-12-14T10:25:59.624Z,12.40
2023-12-14T10:27:01.869Z,13.20
2023-12-14T10:28:04.026Z,13.52
2023-12-14T10:29:05.955Z,13.07
2023-12-14T10:30:13.726Z,13.85
2023-12-14T10:31:16.619Z,12.85
2023-12-14T10:32:19.681Z,12.75
2023-12-14T10:33:21.261Z,12.80
2023-12-14T10:34:22.813Z,13.02
2023-12-14T10:35:24.569Z,11.55
2023-12-14T10:36:28.297Z,12.88
2023-12-14T10:37:30.789Z,12.30
2023-12-14T10:38:35.404Z,12.77
2023-12-14T10:39:38.885Z,13.32
2023-12-14T10:40:44.668Z,12.70
2023-12-14T10:41:54.798Z,12.68
2023-12-14T10:43:02.060Z,12.13
2023-12-14T10:44:19.950Z,12.15
2023-12-14T10:45:31.042Z,10.57
2023-12-14T10:46:33.727Z,11.38
2023-12-14T10:47:35.948Z,11.43
2023-12-14T10:48:43.729Z,11.73
2023-12-14T10:49:50.902Z,11.77
2023-12-14T10:50:54.408Z,12.18
2023-12-14T10:51:58.459Z,12.02
2023-12-14T10:53:00.767Z,10.68
2023-12-14T10:54:02.352Z,11.38
2023-12-14T10:55:12.311Z,11.57
2023-12-14T10:56:14.571Z,11.45
2023-12-14T10:57:16.131Z,11.30
2023-12-14T10:58:17.608Z,10.77
2023-12-14T10:59:19.353Z,11.18
2023-12-14T11:00:23.777Z,11.13
2023-12-14T11:01:25.511Z,11.43
2023-12-14T11:02:27.040Z,10.55
2023-12-14T11:03:34.251Z,11.75
2023-12-14T11:05:10.298Z,11.35
2023-12-14T11:06:31.803Z,11.27
2023-12-14T11:07:55.872Z,10.00
2023-12-14T11:09:07.672Z,12.77
2023-12-14T11:10:10.520Z,11.57
2023-12-14T11:11:21.253Z,12.57
2023-12-14T11:12:22.750Z,12.40
2023-12-14T11:13:25.133Z,12.27
2023-12-14T11:14:27.993Z,12.73
2023-12-14T11:15:31.389Z,12.00
2023-12-14T11:16:33.310Z,11.70
2023-12-14T11:17:37.135Z,12.13
2023-12-14T11:18:39.037Z,11.50
2023-12-14T11:19:40.680Z,12.07
2023-12-14T11:21:03.727Z,11.73
2023-12-14T11:22:13.598Z,12.20
2023-12-14T11:23:23.450Z,12.60
2023-12-14T11:24:25.247Z,11.57
2023-12-14T11:25:36.043Z,12.48
2023-12-14T11:26:43.514Z,12.68
2023-12-14T11:27:45.374Z,14.02
2023-12-14T11:28:47.237Z,12.98
2023-12-14T11:29:49.701Z,13.32
2023-12-14T11:30:55.475Z,12.90
2023-12-14T11:31:59.119Z,12.90
2023-12-14T11:33:00.719Z,12.38
2023-12-14T11:34:04.383Z,13.90
2023-12-14T11:35:09.216Z,14.00
2023-12-14T11:36:12.843Z,11.65
2023-12-14T11:37:14.624Z,13.85
2023-12-14T11:38:16.259Z,13.77
2023-12-14T11:39:17.903Z,12.80
2023-12-14T11:40:23.895Z,14.10
2023-12-14T11:41:26.445Z,13.60
2023-12-14T11:42:32.709Z,14.82
2023-12-14T11:43:42.403Z,13.77
2023-12-14T11:44:43.961Z,14.73
2023-12-14T11:45:45.511Z,14.63
2023-12-14T11:46:46.954Z,14.25
2023-12-14T11:47:48.613Z,13.07
2023-12-14T11:48:50.318Z,14.65
2023-12-14T11:49:51.957Z,14.85
2023-12-14T11:50:54.230Z,13.40
2023-12-14T11:51:56.777Z,15.18
2023-12-14T11:52:58.442Z,15.95
2023-12-14T11:54:02.375Z,18.00
2023-12-14T11:55:04.442Z,15.13
2023-12-14T11:57:10.642Z,14.35
2023-12-14T11:58:17.059Z,15.77
2023-12-14T11:59:20.217Z,16.10
2023-12-14T12:00:31.897Z,14.45
2023-12-14T12:01:34.215Z,15.65
2023-12-14T12:02:35.995Z,15.55
2023-12-14T12:03:37.502Z,16.15
2023-12-14T12:04:39.019Z,16.48
2023-12-14T12:05:46.657Z,15.27
2023-12-14T12:06:48.316Z,15.63
2023-12-14T12:07:49.828Z,15.50
2023-12-14T12:08:51.804Z,15.65
2023-12-14T12:09:53.279Z,15.50
2023-12-14T12:10:54.717Z,15.73
2023-12-14T12:11:56.240Z,16.58
2023-12-14T12:13:08.164Z,15.23
2023-12-14T12:14:11.624Z,14.38
2023-12-14T12:15:14.246Z,14.43
2023-12-14T12:16:15.684Z,14.77
2023-12-14T12:17:17.250Z,15.10
2023-12-14T12:18:19.553Z,14.25
2023-12-14T12:19:21.341Z,14.93
2023-12-14T12:20:22.880Z,14.68
2023-12-14T12:21:24.392Z,14.52
2023-12-14T12:22:25.825Z,14.48
2023-12-14T12:23:27.286Z,15.35
2023-12-14T12:24:30.014Z,15.07
2023-12-14T12:25:33.757Z,14.20
2023-12-14T12:26:35.226Z,13.98
2023-12-14T12:27:36.910Z,14.27
2023-12-14T12:28:38.550Z,13.73
2023-12-14T12:29:40.035Z,13.88
2023-12-14T12:30:42.957Z,14.32
2023-12-14T12:31:46.061Z,13.10
2023-12-14T12:32:48.246Z,14.82
2023-12-14T12:33:49.769Z,13.15
2023-12-14T12:34:51.258Z,13.13
2023-12-14T12:35:53.512Z,14.20
2023-12-14T12:36:55.894Z,13.80
2023-12-14T12:37:57.439Z,15.88
2023-12-14T12:38:58.932Z,14.68
2023-12-14T12:40:00.547Z,14.10
2023-12-14T12:41:02.948Z,13.85
2023-12-14T12:42:04.862Z,13.85
2023-12-14T12:43:06.545Z,13.57
2023-12-14T12:44:10.107Z,14.27
2023-12-14T12:45:11.881Z,14.05
2023-12-14T12:46:13.356Z,13.32
2023-12-14T12:47:14.871Z,13.88
2023-12-14T12:48:16.645Z,13.00
2023-12-14T12:49:18.228Z,13.75
2023-12-14T12:50:19.881Z,13.15
2023-12-14T12:51:22.407Z,13.18
2023-12-14T12:52:23.971Z,13.40
2023-12-14T12:53:25.504Z,14.05
2023-12-14T12:54:27.021Z,13.75
2023-12-14T12:55:28.480Z,13.30
2023-12-14T12:56:30.001Z,11.60
2023-12-14T12:57:31.448Z,11.90
2023-12-14T12:58:32.985Z,13.52
2023-12-14T12:59:34.750Z,13.30
2023-12-14T13:00:37.668Z,12.07
2023-12-14T13:01:39.234Z,12.85
2023-12-14T13:02:46.023Z,13.00
2023-12-14T13:03:47.577Z,13.13
2023-12-14T13:04:49.126Z,14.70
2023-12-14T13:05:50.704Z,12.13
2023-12-14T13:06:52.194Z,12.07
2023-12-14T13:07:55.367Z,12.50
2023-12-14T13:08:56.946Z,13.15
2023-12-14T13:09:58.543Z,14.65
2023-12-14T13:11:00.986Z,15.35
2023-12-14T13:12:02.548Z,13.90
2023-12-14T13:13:05.205Z,13.45
2023-12-14T13:14:08.898Z,13.93
2023-12-14T13:15:11.294Z,13.98
2023-12-14T13:16:17.960Z,14.68
2023-12-14T13:17:19.698Z,13.63
2023-12-14T13:18:21.458Z,13.20
2023-12-14T13:19:24.320Z,13.43
2023-12-14T13:20:26.103Z,13.13
2023-12-14T13:21:27.735Z,13.38
2023-12-14T13:22:31.608Z,12.75
2023-12-14T13:23:34.011Z,14.48
2023-12-14T13:24:35.511Z,14.27
2023-12-14T13:25:37.853Z,13.55
2023-12-14T13:26:40.335Z,13.70
2023-12-14T13:27:42.004Z,12.30
2023-12-14T13:28:43.553Z,13.45
2023-12-14T13:29:46.423Z,13.63
2023-12-14T13:30:48.339Z,12.38
2023-12-14T13:31:49.844Z,13.35
2023-12-14T13:32:51.378Z,12.98
2023-12-14T13:33:54.476Z,13.93
2023-12-14T13:34:56.012Z,14.18
2023-12-14T13:35:57.600Z,14.27
2023-12-14T13:37:01.732Z,14.40
2023-12-14T13:38:03.539Z,14.45
2023-12-14T13:39:05.004Z,13.20
2023-12-14T13:40:07.387Z,14.27
2023-12-14T13:41:09.685Z,13.90